sensor_id;sensor_type;location;lat;lon;timestamp;pressure;altitude;pressure_sealevel;temperature;humidity
46456;BME280;64052;47.466;9.094;2023-04-23T00:00:50;95214.03;;;15.34;62.11
46456;BME280;64052;47.466;9.094;2023-04-23T00:05:56;95209.31;;;15.21;62.54
46456;BME280;64052;47.466;9.094;2023-04-23T00:10:58;95217.94;;;15.23;63.61
46456;BME280;64052;47.466;9.094;2023-04-23T00:16:00;95225.59;;;15.18;63.04
46456;BME280;64052;47.466;9.094;2023-04-23T00:21:01;95220.34;;;15.33;62.54
46456;BME280;64052;47.466;9.094;2023-04-23T00:26:03;95215.75;;;15.27;63.07
46456;BME280;64052;47.466;9.094;2023-04-23T00:31:05;95229.25;;;15.17;62.18
46456;BME280;64052;47.466;9.094;2023-04-23T00:36:07;95226.41;;;14.95;62.82
46456;BME280;64052;47.466;9.094;2023-04-23T00:41:09;95231.38;;;14.90;63.57
46456;BME280;64052;47.466;9.094;2023-04-23T00:46:11;95235.94;;;14.73;63.15
46456;BME280;64052;47.466;9.094;2023-04-23T00:51:15;95239.63;;;14.55;63.62
46456;BME280;64052;47.466;9.094;2023-04-23T00:56:17;95238.63;;;14.56;63.59
46456;BME280;64052;47.466;9.094;2023-04-23T01:01:19;95239.91;;;14.69;63.66
46456;BME280;64052;47.466;9.094;2023-04-23T01:06:21;95237.91;;;14.79;63.90
46456;BME280;64052;47.466;9.094;2023-04-23T01:11:23;95245.66;;;14.89;63.47
46456;BME280;64052;47.466;9.094;2023-04-23T01:16:25;95245.31;;;14.92;63.40
46456;BME280;64052;47.466;9.094;2023-04-23T01:21:27;95244.03;;;14.80;64.60
46456;BME280;64052;47.466;9.094;2023-04-23T01:26:30;95251.53;;;14.76;64.83
46456;BME280;64052;47.466;9.094;2023-04-23T01:31:32;95257.19;;;14.65;65.26
46456;BME280;64052;47.466;9.094;2023-04-23T01:36:34;95264.66;;;14.44;66.05
46456;BME280;64052;47.466;9.094;2023-04-23T01:41:36;95266.00;;;14.40;67.25
46456;BME280;64052;47.466;9.094;2023-04-23T01:46:38;95263.19;;;14.42;66.48
46456;BME280;64052;47.466;9.094;2023-04-23T01:51:41;95273.63;;;14.43;67.76
46456;BME280;64052;47.466;9.094;2023-04-23T01:56:43;95274.66;;;14.34;67.21
46456;BME280;64052;47.466;9.094;2023-04-23T02:01:45;95277.78;;;14.38;67.64
46456;BME280;64052;47.466;9.094;2023-04-23T02:06:49;95282.13;;;14.39;67.03
46456;BME280;64052;47.466;9.094;2023-04-23T02:11:52;95292.53;;;14.48;67.32
46456;BME280;64052;47.466;9.094;2023-04-23T02:16:54;95287.88;;;14.51;67.86
46456;BME280;64052;47.466;9.094;2023-04-23T02:21:55;95299.78;;;14.55;67.51
46456;BME280;64052;47.466;9.094;2023-04-23T02:26:57;95292.69;;;14.47;65.99
46456;BME280;64052;47.466;9.094;2023-04-23T02:31:58;95294.53;;;14.30;66.04
46456;BME280;64052;47.466;9.094;2023-04-23T02:37:00;95292.06;;;14.20;66.58
46456;BME280;64052;47.466;9.094;2023-04-23T02:42:02;95289.59;;;14.02;65.47
46456;BME280;64052;47.466;9.094;2023-04-23T02:47:03;95278.81;;;13.95;65.22
46456;BME280;64052;47.466;9.094;2023-04-23T02:52:05;95282.47;;;13.94;65.04
46456;BME280;64052;47.466;9.094;2023-04-23T02:57:07;95293.25;;;14.01;65.45
46456;BME280;64052;47.466;9.094;2023-04-23T03:02:08;95297.56;;;14.10;65.44
46456;BME280;64052;47.466;9.094;2023-04-23T03:07:10;95299.38;;;14.18;64.57
46456;BME280;64052;47.466;9.094;2023-04-23T03:12:12;95285.59;;;14.14;65.68
46456;BME280;64052;47.466;9.094;2023-04-23T03:17:13;95291.06;;;14.29;64.51
46456;BME280;64052;47.466;9.094;2023-04-23T03:22:15;95291.22;;;14.28;63.98
46456;BME280;64052;47.466;9.094;2023-04-23T03:27:16;95292.22;;;14.18;63.90
46456;BME280;64052;47.466;9.094;2023-04-23T03:32:18;95290.56;;;14.17;63.59
46456;BME280;64052;47.466;9.094;2023-04-23T03:37:20;95286.09;;;14.10;64.46
46456;BME280;64052;47.466;9.094;2023-04-23T03:42:21;95277.81;;;14.21;64.39
46456;BME280;64052;47.466;9.094;2023-04-23T03:47:24;95277.00;;;14.21;64.42
46456;BME280;64052;47.466;9.094;2023-04-23T03:52:27;95281.97;;;14.15;65.23
46456;BME280;64052;47.466;9.094;2023-04-23T03:57:29;95281.16;;;14.07;65.95
46456;BME280;64052;47.466;9.094;2023-04-23T04:03:00;95282.31;;;14.04;66.09
46456;BME280;64052;47.466;9.094;2023-04-23T04:08:02;95271.38;;;13.99;66.19
46456;BME280;64052;47.466;9.094;2023-04-23T04:13:04;95274.34;;;14.04;67.10
46456;BME280;64052;47.466;9.094;2023-04-23T04:18:06;95270.22;;;14.01;67.88
46456;BME280;64052;47.466;9.094;2023-04-23T04:23:07;95265.25;;;13.98;68.38
46456;BME280;64052;47.466;9.094;2023-04-23T04:28:09;95269.06;;;13.96;67.66
46456;BME280;64052;47.466;9.094;2023-04-23T04:33:10;95268.72;;;13.82;68.07
46456;BME280;64052;47.466;9.094;2023-04-23T04:38:12;95275.69;;;13.83;68.23
46456;BME280;64052;47.466;9.094;2023-04-23T04:43:13;95274.38;;;13.96;68.25
46456;BME280;64052;47.466;9.094;2023-04-23T04:48:15;95267.06;;;13.81;68.29
46456;BME280;64052;47.466;9.094;2023-04-23T04:53:16;95252.84;;;13.74;68.18
46456;BME280;64052;47.466;9.094;2023-04-23T04:58:18;95255.00;;;13.79;68.69
46456;BME280;64052;47.466;9.094;2023-04-23T05:03:20;95262.28;;;13.68;68.46
46456;BME280;64052;47.466;9.094;2023-04-23T05:08:22;95261.28;;;13.86;69.02
46456;BME280;64052;47.466;9.094;2023-04-23T05:13:23;95264.75;;;13.95;68.76
46456;BME280;64052;47.466;9.094;2023-04-23T05:18:24;95254.81;;;13.88;69.29
46456;BME280;64052;47.466;9.094;2023-04-23T05:23:26;95260.28;;;13.95;68.90
46456;BME280;64052;47.466;9.094;2023-04-23T05:28:28;95263.59;;;14.05;68.85
46456;BME280;64052;47.466;9.094;2023-04-23T05:33:30;95272.53;;;14.04;69.05
46456;BME280;64052;47.466;9.094;2023-04-23T05:38:43;95270.03;;;14.11;69.11
46456;BME280;64052;47.466;9.094;2023-04-23T05:43:44;95266.06;;;14.24;69.28
46456;BME280;64052;47.466;9.094;2023-04-23T05:48:46;95266.34;;;14.37;67.88
46456;BME280;64052;47.466;9.094;2023-04-23T05:53:47;95273.47;;;14.37;68.02
46456;BME280;64052;47.466;9.094;2023-04-23T05:58:49;95260.72;;;14.40;66.83
46456;BME280;64052;47.466;9.094;2023-04-23T06:03:50;95263.50;;;14.47;67.77
46456;BME280;64052;47.466;9.094;2023-04-23T06:08:52;95266.72;;;14.34;67.05
46456;BME280;64052;47.466;9.094;2023-04-23T06:13:54;95279.25;;;14.48;66.46
46456;BME280;64052;47.466;9.094;2023-04-23T06:18:55;95272.09;;;14.57;67.01
46456;BME280;64052;47.466;9.094;2023-04-23T06:23:57;95267.97;;;14.55;66.73
46456;BME280;64052;47.466;9.094;2023-04-23T06:28:58;95263.16;;;14.58;67.27
46456;BME280;64052;47.466;9.094;2023-04-23T06:34:07;95262.13;;;14.68;66.76
46456;BME280;64052;47.466;9.094;2023-04-23T06:39:08;95259.97;;;14.71;66.61
46456;BME280;64052;47.466;9.094;2023-04-23T06:44:10;95251.31;;;14.86;66.83
46456;BME280;64052;47.466;9.094;2023-04-23T06:49:21;95258.94;;;14.89;66.25
46456;BME280;64052;47.466;9.094;2023-04-23T06:54:23;95248.88;;;14.68;65.87
46456;BME280;64052;47.466;9.094;2023-04-23T06:59:24;95238.59;;;14.73;66.20
46456;BME280;64052;47.466;9.094;2023-04-23T07:04:29;95232.38;;;14.89;66.91
46456;BME280;64052;47.466;9.094;2023-04-23T07:09:30;95235.00;;;14.97;66.74
46456;BME280;64052;47.466;9.094;2023-04-23T07:14:32;95228.72;;;14.90;66.98
46456;BME280;64052;47.466;9.094;2023-04-23T07:19:33;95230.09;;;14.86;66.33
46456;BME280;64052;47.466;9.094;2023-04-23T07:24:35;95227.47;;;15.09;65.74
46456;BME280;64052;47.466;9.094;2023-04-23T07:29:37;95217.34;;;15.13;66.21
46456;BME280;64052;47.466;9.094;2023-04-23T07:34:38;95214.84;;;15.11;66.00
46456;BME280;64052;47.466;9.094;2023-04-23T07:39:40;95196.38;;;15.18;65.13
46456;BME280;64052;47.466;9.094;2023-04-23T07:44:44;95191.25;;;15.40;65.84
46456;BME280;64052;47.466;9.094;2023-04-23T07:49:46;95180.38;;;15.73;66.28
46456;BME280;64052;47.466;9.094;2023-04-23T07:54:47;95177.81;;;15.80;63.03
46456;BME280;64052;47.466;9.094;2023-04-23T07:59:49;95162.03;;;15.78;62.20
46456;BME280;64052;47.466;9.094;2023-04-23T08:04:51;95168.16;;;16.02;63.98
46456;BME280;64052;47.466;9.094;2023-04-23T08:09:53;95158.75;;;16.29;61.70
46456;BME280;64052;47.466;9.094;2023-04-23T08:14:54;95161.03;;;16.48;58.96
46456;BME280;64052;47.466;9.094;2023-04-23T08:20:03;95156.16;;;16.51;58.58
46456;BME280;64052;47.466;9.094;2023-04-23T08:25:05;95153.38;;;16.75;59.13
46456;BME280;64052;47.466;9.094;2023-04-23T08:30:07;95150.03;;;16.88;57.05
46456;BME280;64052;47.466;9.094;2023-04-23T08:35:09;95146.28;;;17.19;57.84
46456;BME280;64052;47.466;9.094;2023-04-23T08:40:11;95132.34;;;17.38;58.08
46456;BME280;64052;47.466;9.094;2023-04-23T08:45:13;95119.19;;;17.59;60.03
46456;BME280;64052;47.466;9.094;2023-04-23T08:50:16;95128.03;;;17.94;57.26
46456;BME280;64052;47.466;9.094;2023-04-23T08:55:19;95122.13;;;18.28;55.15
46456;BME280;64052;47.466;9.094;2023-04-23T09:00:21;95125.13;;;18.53;53.78
46456;BME280;64052;47.466;9.094;2023-04-23T09:05:23;95118.53;;;18.49;53.48
46456;BME280;64052;47.466;9.094;2023-04-23T09:10:24;95117.66;;;18.35;51.65
46456;BME280;64052;47.466;9.094;2023-04-23T09:15:26;95104.44;;;18.20;51.96
46456;BME280;64052;47.466;9.094;2023-04-23T09:20:27;95098.50;;;18.18;52.03
46456;BME280;64052;47.466;9.094;2023-04-23T09:25:29;95096.19;;;18.15;50.26
46456;BME280;64052;47.466;9.094;2023-04-23T09:30:30;95089.22;;;18.14;52.27
46456;BME280;64052;47.466;9.094;2023-04-23T09:35:32;95086.22;;;18.30;52.36
46456;BME280;64052;47.466;9.094;2023-04-23T09:40:33;95087.25;;;18.29;51.11
46456;BME280;64052;47.466;9.094;2023-04-23T09:45:35;95077.69;;;18.48;50.88
46456;BME280;64052;47.466;9.094;2023-04-23T09:50:38;95080.03;;;18.85;51.18
46456;BME280;64052;47.466;9.094;2023-04-23T09:55:40;95073.91;;;18.98;48.44
46456;BME280;64052;47.466;9.094;2023-04-23T10:00:44;95065.66;;;18.93;48.15
46456;BME280;64052;47.466;9.094;2023-04-23T10:05:46;95049.69;;;19.00;46.94
46456;BME280;64052;47.466;9.094;2023-04-23T10:11:02;95045.38;;;19.12;47.13
46456;BME280;64052;47.466;9.094;2023-04-23T10:16:21;95052.59;;;19.32;45.54
46456;BME280;64052;47.466;9.094;2023-04-23T10:21:31;95032.84;;;19.53;46.35
46456;BME280;64052;47.466;9.094;2023-04-23T10:26:56;95023.34;;;19.77;45.67
46456;BME280;64052;47.466;9.094;2023-04-23T10:32:00;95016.69;;;20.14;46.98
46456;BME280;64052;47.466;9.094;2023-04-23T10:37:02;95012.50;;;20.31;44.42
46456;BME280;64052;47.466;9.094;2023-04-23T10:42:04;95014.31;;;20.44;45.16
46456;BME280;64052;47.466;9.094;2023-04-23T10:47:08;95012.25;;;20.78;45.86
46456;BME280;64052;47.466;9.094;2023-04-23T10:52:12;95000.84;;;21.22;46.12
46456;BME280;64052;47.466;9.094;2023-04-23T10:57:22;94998.25;;;21.34;44.48
46456;BME280;64052;47.466;9.094;2023-04-23T11:02:24;94989.69;;;21.25;44.50
46456;BME280;64052;47.466;9.094;2023-04-23T11:07:31;94979.13;;;21.05;42.53
46456;BME280;64052;47.466;9.094;2023-04-23T11:12:32;94974.34;;;21.07;44.46
46456;BME280;64052;47.466;9.094;2023-04-23T11:27:46;94953.91;;;21.57;43.45
46456;BME280;64052;47.466;9.094;2023-04-23T11:32:49;94950.44;;;21.31;43.06
46456;BME280;64052;47.466;9.094;2023-04-23T11:37:51;94943.00;;;21.33;44.33
46456;BME280;64052;47.466;9.094;2023-04-23T11:42:53;94936.31;;;21.42;42.89
46456;BME280;64052;47.466;9.094;2023-04-23T11:47:59;94942.84;;;21.72;43.79
46456;BME280;64052;47.466;9.094;2023-04-23T11:53:05;94932.72;;;21.93;43.59
46456;BME280;64052;47.466;9.094;2023-04-23T11:58:07;94924.41;;;21.94;41.14
46456;BME280;64052;47.466;9.094;2023-04-23T12:03:09;94925.84;;;21.97;41.55
46456;BME280;64052;47.466;9.094;2023-04-23T12:08:14;94915.13;;;22.27;40.37
46456;BME280;64052;47.466;9.094;2023-04-23T12:13:27;94909.84;;;22.21;40.27
46456;BME280;64052;47.466;9.094;2023-04-23T12:18:30;94903.78;;;22.25;43.86
46456;BME280;64052;47.466;9.094;2023-04-23T12:23:32;94901.97;;;22.38;44.74
46456;BME280;64052;47.466;9.094;2023-04-23T12:28:33;94892.59;;;22.28;43.80
46456;BME280;64052;47.466;9.094;2023-04-23T12:33:35;94892.00;;;22.26;45.53
46456;BME280;64052;47.466;9.094;2023-04-23T12:38:36;94886.38;;;22.58;43.00
46456;BME280;64052;47.466;9.094;2023-04-23T12:43:38;94892.97;;;22.63;42.74
46456;BME280;64052;47.466;9.094;2023-04-23T12:48:39;94888.44;;;22.99;42.62
46456;BME280;64052;47.466;9.094;2023-04-23T12:53:41;94881.06;;;23.06;41.93
46456;BME280;64052;47.466;9.094;2023-04-23T12:58:42;94873.50;;;23.27;44.29
46456;BME280;64052;47.466;9.094;2023-04-23T13:03:44;94876.06;;;23.22;44.29
46456;BME280;64052;47.466;9.094;2023-04-23T13:08:45;94859.44;;;22.89;43.87
46456;BME280;64052;47.466;9.094;2023-04-23T13:13:47;94851.47;;;22.58;44.37
46456;BME280;64052;47.466;9.094;2023-04-23T13:18:49;94838.75;;;22.66;45.03
46456;BME280;64052;47.466;9.094;2023-04-23T13:23:50;94837.69;;;22.67;42.80
46456;BME280;64052;47.466;9.094;2023-04-23T13:28:51;94820.00;;;22.35;44.46
46456;BME280;64052;47.466;9.094;2023-04-23T13:33:53;94822.56;;;22.42;43.60
46456;BME280;64052;47.466;9.094;2023-04-23T13:38:55;94824.88;;;22.26;45.53
46456;BME280;64052;47.466;9.094;2023-04-23T13:43:56;94807.78;;;22.09;45.08
46456;BME280;64052;47.466;9.094;2023-04-23T13:48:57;94807.34;;;21.62;45.56
46456;BME280;64052;47.466;9.094;2023-04-23T13:53:59;94796.91;;;21.05;48.36
46456;BME280;64052;47.466;9.094;2023-04-23T13:59:01;94791.03;;;20.71;48.89
46456;BME280;64052;47.466;9.094;2023-04-23T14:04:20;94790.88;;;20.66;54.32
46456;BME280;64052;47.466;9.094;2023-04-23T14:09:21;94793.09;;;20.50;54.81
46456;BME280;64052;47.466;9.094;2023-04-23T14:14:23;94785.09;;;20.18;54.75
46456;BME280;64052;47.466;9.094;2023-04-23T14:19:25;94785.19;;;20.04;58.18
46456;BME280;64052;47.466;9.094;2023-04-23T14:24:27;94793.28;;;19.91;57.73
46456;BME280;64052;47.466;9.094;2023-04-23T14:29:49;94790.00;;;19.89;61.15
46456;BME280;64052;47.466;9.094;2023-04-23T14:34:51;94781.78;;;19.84;60.96
46456;BME280;64052;47.466;9.094;2023-04-23T14:39:53;94756.31;;;19.74;59.57
46456;BME280;64052;47.466;9.094;2023-04-23T14:44:57;94780.94;;;19.90;60.79
46456;BME280;64052;47.466;9.094;2023-04-23T14:49:59;94779.25;;;20.02;58.57
46456;BME280;64052;47.466;9.094;2023-04-23T14:55:00;94779.75;;;19.79;61.05
46456;BME280;64052;47.466;9.094;2023-04-23T15:00:03;94786.69;;;19.87;60.36
46456;BME280;64052;47.466;9.094;2023-04-23T15:05:06;94806.78;;;19.71;59.04
46456;BME280;64052;47.466;9.094;2023-04-23T15:10:08;94808.59;;;19.24;58.23
46456;BME280;64052;47.466;9.094;2023-04-23T15:15:20;94802.50;;;19.10;59.70
46456;BME280;64052;47.466;9.094;2023-04-23T15:20:33;94796.75;;;19.00;59.60
46456;BME280;64052;47.466;9.094;2023-04-23T15:25:35;94806.19;;;18.96;60.17
46456;BME280;64052;47.466;9.094;2023-04-23T15:30:37;94812.19;;;18.78;59.14
46456;BME280;64052;47.466;9.094;2023-04-23T15:35:38;94838.91;;;18.78;61.48
46456;BME280;64052;47.466;9.094;2023-04-23T15:40:40;94863.94;;;18.57;61.17
46456;BME280;64052;47.466;9.094;2023-04-23T15:45:42;94877.66;;;18.06;64.21
46456;BME280;64052;47.466;9.094;2023-04-23T15:50:44;94853.13;;;17.69;65.40
46456;BME280;64052;47.466;9.094;2023-04-23T15:55:46;94844.81;;;17.44;62.10
46456;BME280;64052;47.466;9.094;2023-04-23T16:00:47;94823.78;;;17.13;60.61
46456;BME280;64052;47.466;9.094;2023-04-23T16:05:49;94822.22;;;16.97;60.92
46456;BME280;64052;47.466;9.094;2023-04-23T16:10:50;94816.72;;;16.99;60.90
46456;BME280;64052;47.466;9.094;2023-04-23T16:15:52;94820.91;;;16.80;61.71
46456;BME280;64052;47.466;9.094;2023-04-23T16:20:53;94815.25;;;16.61;62.62
46456;BME280;64052;47.466;9.094;2023-04-23T16:25:55;94796.00;;;16.59;64.23
46456;BME280;64052;47.466;9.094;2023-04-23T16:30:56;94785.66;;;16.42;64.27
46456;BME280;64052;47.466;9.094;2023-04-23T16:35:58;94789.66;;;16.32;64.73
46456;BME280;64052;47.466;9.094;2023-04-23T16:40:59;94785.91;;;16.26;66.04
46456;BME280;64052;47.466;9.094;2023-04-23T16:46:01;94789.44;;;16.55;66.25
46456;BME280;64052;47.466;9.094;2023-04-23T16:51:03;94798.25;;;16.62;66.60
46456;BME280;64052;47.466;9.094;2023-04-23T16:56:04;94788.28;;;16.71;65.49
46456;BME280;64052;47.466;9.094;2023-04-23T17:01:06;94760.75;;;16.50;65.70
46456;BME280;64052;47.466;9.094;2023-04-23T17:06:31;94777.22;;;16.67;66.31
46456;BME280;64052;47.466;9.094;2023-04-23T17:11:31;94746.50;;;16.65;64.16
46456;BME280;64052;47.466;9.094;2023-04-23T17:16:33;94751.44;;;16.75;64.13
46456;BME280;64052;47.466;9.094;2023-04-23T17:21:34;94760.56;;;16.94;62.36
46456;BME280;64052;47.466;9.094;2023-04-23T17:26:36;94759.34;;;16.96;61.71
46456;BME280;64052;47.466;9.094;2023-04-23T17:31:38;94758.97;;;16.99;63.56
46456;BME280;64052;47.466;9.094;2023-04-23T17:36:39;94757.78;;;17.09;63.41
46456;BME280;64052;47.466;9.094;2023-04-23T17:41:41;94758.56;;;17.03;63.03
46456;BME280;64052;47.466;9.094;2023-04-23T17:46:42;94768.00;;;17.05;62.50
46456;BME280;64052;47.466;9.094;2023-04-23T17:51:44;94762.59;;;16.92;61.90
46456;BME280;64052;47.466;9.094;2023-04-23T17:56:46;94770.59;;;16.56;63.18
46456;BME280;64052;47.466;9.094;2023-04-23T18:01:48;94781.94;;;16.37;58.86
46456;BME280;64052;47.466;9.094;2023-04-23T18:06:49;94806.78;;;16.00;58.24
46456;BME280;64052;47.466;9.094;2023-04-23T18:11:51;94810.53;;;15.69;60.00
46456;BME280;64052;47.466;9.094;2023-04-23T18:16:54;94806.94;;;15.77;60.86
46456;BME280;64052;47.466;9.094;2023-04-23T18:21:56;94827.78;;;15.95;60.67
46456;BME280;64052;47.466;9.094;2023-04-23T18:26:57;94849.06;;;15.95;60.11
46456;BME280;64052;47.466;9.094;2023-04-23T18:31:59;94852.81;;;15.64;61.48
46456;BME280;64052;47.466;9.094;2023-04-23T18:37:02;94864.69;;;15.31;63.09
46456;BME280;64052;47.466;9.094;2023-04-23T18:42:04;94866.41;;;15.24;63.31
46456;BME280;64052;47.466;9.094;2023-04-23T18:47:05;94899.38;;;15.30;64.37
46456;BME280;64052;47.466;9.094;2023-04-23T18:52:07;94918.97;;;15.29;64.14
46456;BME280;64052;47.466;9.094;2023-04-23T18:57:09;94926.38;;;15.18;64.22
46456;BME280;64052;47.466;9.094;2023-04-23T19:02:10;94938.94;;;15.10;61.64
46456;BME280;64052;47.466;9.094;2023-04-23T19:07:25;94968.72;;;14.82;63.36
46456;BME280;64052;47.466;9.094;2023-04-23T19:12:26;94975.28;;;14.62;64.33
46456;BME280;64052;47.466;9.094;2023-04-23T19:17:28;94989.03;;;14.43;65.13
46456;BME280;64052;47.466;9.094;2023-04-23T19:22:29;94977.44;;;14.44;64.46
46456;BME280;64052;47.466;9.094;2023-04-23T19:27:31;94977.78;;;14.64;63.79
46456;BME280;64052;47.466;9.094;2023-04-23T19:32:32;94985.28;;;14.84;63.23
46456;BME280;64052;47.466;9.094;2023-04-23T19:37:34;94988.38;;;14.87;62.62
46456;BME280;64052;47.466;9.094;2023-04-23T19:42:35;94987.69;;;14.94;62.24
46456;BME280;64052;47.466;9.094;2023-04-23T19:47:37;95000.00;;;15.10;62.00
46456;BME280;64052;47.466;9.094;2023-04-23T19:52:38;95004.88;;;14.98;61.80
46456;BME280;64052;47.466;9.094;2023-04-23T19:57:40;95010.72;;;14.93;62.28
46456;BME280;64052;47.466;9.094;2023-04-23T20:02:41;95019.38;;;14.95;61.85
46456;BME280;64052;47.466;9.094;2023-04-23T20:07:43;95030.69;;;14.89;61.88
46456;BME280;64052;47.466;9.094;2023-04-23T20:12:45;95023.50;;;14.74;61.23
46456;BME280;64052;47.466;9.094;2023-04-23T20:17:46;95022.66;;;14.97;61.13
46456;BME280;64052;47.466;9.094;2023-04-23T20:22:48;95013.06;;;14.96;61.26
46456;BME280;64052;47.466;9.094;2023-04-23T20:27:49;95013.94;;;14.88;61.35
46456;BME280;64052;47.466;9.094;2023-04-23T20:32:51;95017.47;;;15.04;60.84
46456;BME280;64052;47.466;9.094;2023-04-23T20:37:53;95008.69;;;15.18;60.74
46456;BME280;64052;47.466;9.094;2023-04-23T20:42:54;95015.28;;;15.23;60.08
46456;BME280;64052;47.466;9.094;2023-04-23T20:47:55;95011.81;;;15.22;60.34
46456;BME280;64052;47.466;9.094;2023-04-23T20:52:57;95019.91;;;15.06;60.48
46456;BME280;64052;47.466;9.094;2023-04-23T20:57:58;95013.63;;;15.07;60.67
46456;BME280;64052;47.466;9.094;2023-04-23T21:03:00;95005.63;;;14.92;60.75
46456;BME280;64052;47.466;9.094;2023-04-23T21:08:02;95010.81;;;14.85;60.69
46456;BME280;64052;47.466;9.094;2023-04-23T21:13:05;95012.19;;;14.49;61.77
46456;BME280;64052;47.466;9.094;2023-04-23T21:18:07;95002.00;;;14.61;61.53
46456;BME280;64052;47.466;9.094;2023-04-23T21:23:09;94987.75;;;14.62;62.03
46456;BME280;64052;47.466;9.094;2023-04-23T21:28:10;94998.84;;;14.89;61.54
46456;BME280;64052;47.466;9.094;2023-04-23T21:33:12;95003.59;;;14.94;62.21
46456;BME280;64052;47.466;9.094;2023-04-23T21:38:14;95014.91;;;14.64;61.21
46456;BME280;64052;47.466;9.094;2023-04-23T21:43:15;94992.56;;;14.58;61.14
46456;BME280;64052;47.466;9.094;2023-04-23T21:48:17;94998.91;;;14.26;61.57
46456;BME280;64052;47.466;9.094;2023-04-23T21:53:18;95002.41;;;14.26;62.48
46456;BME280;64052;47.466;9.094;2023-04-23T21:58:20;94997.16;;;14.41;62.24
46456;BME280;64052;47.466;9.094;2023-04-23T22:03:21;94998.41;;;14.54;61.82
46456;BME280;64052;47.466;9.094;2023-04-23T22:08:39;94984.53;;;14.43;61.67
46456;BME280;64052;47.466;9.094;2023-04-23T22:13:41;94997.00;;;14.43;62.39
46456;BME280;64052;47.466;9.094;2023-04-23T22:18:42;94963.44;;;14.50;62.36
46456;BME280;64052;47.466;9.094;2023-04-23T22:23:44;94954.44;;;14.59;63.29
46456;BME280;64052;47.466;9.094;2023-04-23T22:28:45;94945.06;;;14.48;63.43
46456;BME280;64052;47.466;9.094;2023-04-23T22:33:47;94954.09;;;14.39;64.04
46456;BME280;64052;47.466;9.094;2023-04-23T22:38:48;94951.53;;;14.46;64.07
46456;BME280;64052;47.466;9.094;2023-04-23T22:43:50;94943.19;;;14.57;64.11
46456;BME280;64052;47.466;9.094;2023-04-23T22:48:51;94938.63;;;14.66;64.21
46456;BME280;64052;47.466;9.094;2023-04-23T22:53:53;94942.25;;;14.73;63.93
46456;BME280;64052;47.466;9.094;2023-04-23T22:58:54;94935.41;;;14.79;62.99
46456;BME280;64052;47.466;9.094;2023-04-23T23:03:56;94949.53;;;14.71;63.37
46456;BME280;64052;47.466;9.094;2023-04-23T23:08:57;94953.25;;;14.62;63.86
46456;BME280;64052;47.466;9.094;2023-04-23T23:13:59;94950.78;;;14.60;63.56
46456;BME280;64052;47.466;9.094;2023-04-23T23:19:00;94957.00;;;14.76;62.78
46456;BME280;64052;47.466;9.094;2023-04-23T23:24:02;94965.44;;;14.95;61.43
46456;BME280;64052;47.466;9.094;2023-04-23T23:29:03;94963.84;;;15.09;61.28
46456;BME280;64052;47.466;9.094;2023-04-23T23:34:05;94950.00;;;14.98;62.25
46456;BME280;64052;47.466;9.094;2023-04-23T23:39:07;94937.41;;;14.77;62.85
46456;BME280;64052;47.466;9.094;2023-04-23T23:44:08;94939.09;;;14.70;63.39
46456;BME280;64052;47.466;9.094;2023-04-23T23:49:09;94925.69;;;14.86;62.88
46456;BME280;64052;47.466;9.094;2023-04-23T23:54:11;94918.66;;;14.79;61.08
46456;BME280;64052;47.466;9.094;2023-04-23T23:59:13;94910.03;;;14.77;59.83
